Current Weather

Chicago O'Hare International

Chicago, Illinois (KORD)

Report from: Sunday, September 25, 2022 8:51 PM CDT
Current time: Sunday, September 25, 2022 9:50 PM CDT

Nearby weather
Weather history
Weather forecast

Temperature13.9°C (57.0°F)
Dew point9.4°C (48.9°F)
Winds 10 kts (5.1 m/s, 11.5 mph) Northwest (320°)
Wind gusts 19 kts (9.8 m/s, 21.9 mph)
Peak wind 30 kts (15.4 m/s, 34.5 mph) North (350°) at 20:05
Visibility10 mi. (16.1 km)
Clouds Few clouds 3,000 ft. (914 m)
Ceiling: Broken clouds 6,000 ft. (1,829 m)
Broken clouds 8,500 ft. (2,591 m)
Broken clouds 13,000 ft. (3,962 m)
Altimeter29.83 in.Hg (1010 mB)
Precipitiation0.01 in. (0 mm)
Precip. events Rain began 8:00 PM
Rain ended 8:41 PM
Relative humidity74 %
Density altitude142 ft. (43 m)
Sea-level pressure101.0 kPa (1010 mB, 29.82 in.Hg)
Remarks Automated weather observing station with precipitation discriminator
Flight conditions Visual Meteorological Conditions
Raw dataKORD 260151Z 32010G19KT 10SM FEW030 BKN060 BKN085 BKN130 14/09 A2983 RMK AO2 PK WND 35030/0105 RAB00E41 SLP099 P0001 T01390094
An error has occurred. This application may no longer respond until reloaded. Reload 🗙